createdAt,value
2022-08-28T00:00:42.956Z,99.99
2022-08-28T00:01:51.075Z,99.99
2022-08-28T00:02:47.566Z,99.99
2022-08-28T00:03:45.661Z,99.99
2022-08-28T00:04:45.877Z,99.99
2022-08-28T00:05:44.378Z,99.99
2022-08-28T00:06:48.543Z,99.99
2022-08-28T00:07:47.810Z,99.99
2022-08-28T00:08:45.223Z,99.99
2022-08-28T00:09:45.534Z,99.99
2022-08-28T00:10:45.840Z,99.99
2022-08-28T00:11:47.655Z,99.99
2022-08-28T00:12:46.412Z,99.99
2022-08-28T00:13:47.620Z,99.99
2022-08-28T00:14:46.982Z,99.99
2022-08-28T00:15:47.334Z,99.99
2022-08-28T00:16:50.665Z,99.99
2022-08-28T00:17:47.946Z,99.99
2022-08-28T00:18:50.172Z,99.99
2022-08-28T00:19:48.559Z,99.99
2022-08-28T00:20:48.874Z,99.99
2022-08-28T00:21:52.226Z,99.99
2022-08-28T00:22:49.510Z,99.99
2022-08-28T00:23:52.998Z,99.99
2022-08-28T00:24:50.163Z,99.99
2022-08-28T00:25:53.800Z,99.99
2022-08-28T00:26:53.796Z,99.99
2022-08-28T00:27:50.956Z,99.99
2022-08-28T00:28:51.462Z,99.99
2022-08-28T00:29:53.444Z,99.99
2022-08-28T00:30:51.979Z,99.99
2022-08-28T00:31:53.872Z,99.99
2022-08-28T00:32:52.783Z,99.99
2022-08-28T00:33:52.927Z,99.99
2022-08-28T00:34:55.113Z,99.99
2022-08-28T00:35:53.495Z,99.99
2022-08-28T00:36:56.681Z,99.99
2022-08-28T00:37:54.078Z,99.99
2022-08-28T00:38:55.467Z,99.99
2022-08-28T00:39:56.658Z,99.99
2022-08-28T00:40:56.042Z,99.99
2022-08-28T00:41:57.802Z,99.99
2022-08-28T00:42:56.351Z,99.99
2022-08-28T00:43:56.768Z,99.99
2022-08-28T00:44:58.039Z,99.99
2022-08-28T00:45:56.428Z,99.99
2022-08-28T00:47:01.030Z,99.99
2022-08-28T00:47:57.080Z,99.99
2022-08-28T00:48:57.392Z,99.99
2022-08-28T00:49:57.700Z,99.99
2022-08-28T00:51:00.392Z,99.99
2022-08-28T00:51:59.781Z,99.99
2022-08-28T00:52:59.491Z,99.99
2022-08-28T00:54:00.666Z,99.99
2022-08-28T00:55:01.050Z,99.99
2022-08-28T00:56:00.223Z,99.99
2022-08-28T00:57:02.692Z,99.99
2022-08-28T00:57:59.976Z,99.99
2022-08-28T00:59:00.280Z,99.99
2022-08-28T01:00:02.470Z,99.99
2022-08-28T01:01:01.618Z,99.99
2022-08-28T01:02:02.008Z,99.99
2022-08-28T01:03:01.427Z,99.99
2022-08-28T01:04:01.610Z,99.99
2022-08-28T01:05:03.774Z,99.99
2022-08-28T01:06:03.952Z,99.99
2022-08-28T01:07:05.322Z,99.99
2022-08-28T01:08:04.355Z,99.99
2022-08-28T01:09:05.035Z,99.99
2022-08-28T01:10:05.212Z,99.99
2022-08-28T01:11:05.413Z,99.99
2022-08-28T01:12:06.882Z,99.99
2022-08-28T01:13:04.165Z,99.99
2022-08-28T01:14:04.470Z,99.99
2022-08-28T01:15:06.665Z,99.99
2022-08-28T01:16:06.999Z,99.99
2022-08-28T01:17:06.142Z,99.99
2022-08-28T01:18:08.587Z,99.99
2022-08-28T01:19:05.953Z,99.99
2022-08-28T01:20:08.140Z,99.99
2022-08-28T01:21:08.331Z,99.99
2022-08-28T01:22:09.764Z,99.99
2022-08-28T01:23:08.715Z,99.99
2022-08-28T01:24:09.403Z,99.99
2022-08-28T01:25:09.595Z,99.96
2022-08-28T01:26:10.732Z,99.76
2022-08-28T01:27:10.273Z,99.55
2022-08-28T01:28:10.529Z,99.45
2022-08-28T01:29:10.626Z,99.45
2022-08-28T01:30:10.805Z,99.35
2022-08-28T01:31:09.650Z,99.35
2022-08-28T01:32:11.749Z,99.35
2022-08-28T01:33:12.093Z,99.41
2022-08-28T01:34:10.440Z,99.41
2022-08-28T01:35:12.596Z,99.30
2022-08-28T01:36:10.982Z,99.41
2022-08-28T01:37:11.294Z,99.41
2022-08-28T01:38:14.229Z,99.30
2022-08-28T01:39:12.887Z,99.20
2022-08-28T01:40:14.148Z,99.30
2022-08-28T01:41:12.437Z,99.20
2022-08-28T01:42:14.620Z,99.10
2022-08-28T01:43:14.801Z,99.00
2022-08-28T01:44:13.305Z,99.00
2022-08-28T01:45:15.493Z,98.90
2022-08-28T01:46:13.937Z,98.79
2022-08-28T01:47:16.075Z,98.69
2022-08-28T01:48:14.555Z,98.69
2022-08-28T01:49:16.642Z,98.65
2022-08-28T01:50:16.836Z,98.54
2022-08-28T01:51:15.346Z,98.54
2022-08-28T01:52:15.654Z,98.34
2022-08-28T01:53:16.080Z,98.24
2022-08-28T01:54:18.160Z,98.39
2022-08-28T01:55:21.555Z,98.39
2022-08-28T01:56:16.867Z,98.49
2022-08-28T01:57:19.050Z,98.59
2022-08-28T01:58:17.455Z,98.69
2022-08-28T01:59:19.645Z,98.69
2022-08-28T02:00:19.800Z,98.59
2022-08-28T02:01:18.404Z,98.69
2022-08-28T02:02:20.468Z,98.79
2022-08-28T02:03:18.858Z,98.90
2022-08-28T02:04:21.080Z,98.90
2022-08-28T02:05:20.459Z,98.90
2022-08-28T02:06:19.704Z,98.85
2022-08-28T02:07:23.851Z,98.75
2022-08-28T02:08:20.272Z,98.54
2022-08-28T02:09:22.457Z,98.44
2022-08-28T02:10:22.637Z,98.34
2022-08-28T02:11:21.071Z,98.34
2022-08-28T02:12:23.267Z,98.34
2022-08-28T02:13:21.658Z,98.34
2022-08-28T02:14:23.839Z,98.34
2022-08-28T02:15:23.544Z,98.24
2022-08-28T02:16:23.525Z,98.24
2022-08-28T02:17:24.714Z,98.14
2022-08-28T02:18:23.093Z,98.03
2022-08-28T02:19:23.411Z,98.03
2022-08-28T02:20:25.672Z,97.93
2022-08-28T02:21:25.094Z,97.93
2022-08-28T02:22:24.329Z,97.89
2022-08-28T02:23:24.644Z,97.83
2022-08-28T02:24:28.276Z,97.83
2022-08-28T02:25:27.012Z,97.83
2022-08-28T02:26:27.005Z,97.93
2022-08-28T02:27:26.560Z,98.03
2022-08-28T02:28:28.012Z,98.09
2022-08-28T02:29:28.133Z,97.99
2022-08-28T02:30:27.554Z,97.99
2022-08-28T02:31:28.473Z,97.89
2022-08-28T02:32:28.130Z,97.89
2022-08-28T02:33:29.494Z,97.89
2022-08-28T02:34:27.750Z,97.89
2022-08-28T02:35:28.063Z,97.78
2022-08-28T02:36:29.280Z,97.69
2022-08-28T02:37:30.639Z,97.69
2022-08-28T02:38:32.273Z,97.69
2022-08-28T02:39:31.005Z,97.78
2022-08-28T02:40:30.497Z,97.69
2022-08-28T02:41:30.848Z,97.78
2022-08-28T02:42:31.009Z,97.48
2022-08-28T02:43:31.424Z,97.48
2022-08-28T02:44:32.694Z,97.48
2022-08-28T02:45:31.999Z,97.48
2022-08-28T02:46:32.906Z,97.28
2022-08-28T02:47:32.588Z,97.28
2022-08-28T02:48:33.827Z,97.38
2022-08-28T02:49:36.093Z,97.48
2022-08-28T02:50:33.313Z,97.48
2022-08-28T02:51:34.753Z,97.53
2022-08-28T02:52:33.137Z,97.58
2022-08-28T02:53:33.457Z,97.48
2022-08-28T02:54:34.635Z,97.28
2022-08-28T02:55:35.808Z,97.17
2022-08-28T02:56:36.320Z,96.97
2022-08-28T02:57:36.237Z,96.77
2022-08-28T02:58:36.428Z,96.77
2022-08-28T02:59:37.115Z,96.67
2022-08-28T03:00:37.290Z,96.67
2022-08-28T03:01:38.727Z,96.56
2022-08-28T03:02:37.759Z,96.81
2022-08-28T03:03:37.848Z,97.12
2022-08-28T03:04:38.541Z,97.12
2022-08-28T03:05:38.738Z,97.22
2022-08-28T03:06:40.231Z,97.32
2022-08-28T03:07:37.515Z,97.42
2022-08-28T03:08:37.811Z,97.42
2022-08-28T03:09:39.996Z,97.42
2022-08-28T03:10:38.402Z,97.32
2022-08-28T03:11:42.552Z,97.32
2022-08-28T03:12:38.968Z,97.32
2022-08-28T03:13:39.269Z,97.32
2022-08-28T03:14:41.457Z,97.22
2022-08-28T03:15:39.848Z,97.02
2022-08-28T03:16:42.127Z,97.12
2022-08-28T03:17:42.242Z,97.06
2022-08-28T03:18:42.430Z,97.27
2022-08-28T03:19:42.620Z,97.37
2022-08-28T03:20:43.311Z,97.27
2022-08-28T03:21:44.674Z,97.37
2022-08-28T03:22:43.712Z,97.37
2022-08-28T03:23:42.221Z,97.37
2022-08-28T03:24:44.407Z,97.47
2022-08-28T03:25:44.589Z,97.57
2022-08-28T03:26:45.994Z,97.47
2022-08-28T03:27:45.022Z,97.57
2022-08-28T03:28:45.206Z,97.78
2022-08-28T03:29:43.959Z,97.57
2022-08-28T03:30:46.171Z,97.57
2022-08-28T03:31:45.516Z,97.57
2022-08-28T03:32:44.885Z,97.47
2022-08-28T03:33:47.065Z,97.47
2022-08-28T03:34:45.452Z,97.27
2022-08-28T03:35:45.762Z,97.16
2022-08-28T03:36:47.565Z,97.16
2022-08-28T03:37:46.308Z,97.06
2022-08-28T03:38:46.626Z,97.06
2022-08-28T03:39:48.795Z,97.06
2022-08-28T03:40:47.184Z,97.06
2022-08-28T03:41:51.339Z,97.27
2022-08-28T03:42:52.925Z,97.27
2022-08-28T03:43:49.082Z,97.22
2022-08-28T03:44:48.327Z,97.12
2022-08-28T03:45:50.553Z,97.02
2022-08-28T03:46:50.877Z,97.02
2022-08-28T03:47:49.172Z,96.92
2022-08-28T03:48:49.464Z,96.56
2022-08-28T03:49:51.635Z,96.36
2022-08-28T03:50:50.025Z,96.36
2022-08-28T03:51:52.299Z,96.26
2022-08-28T03:52:50.697Z,96.36
2022-08-28T03:53:50.839Z,96.15
2022-08-28T03:54:51.146Z,96.15
2022-08-28T03:55:53.329Z,96.06
2022-08-28T03:56:54.629Z,96.06
2022-08-28T03:57:52.042Z,95.95
2022-08-28T03:58:52.370Z,95.85
2022-08-28T03:59:52.689Z,95.91
2022-08-28T04:00:54.923Z,96.01
2022-08-28T04:01:54.157Z,95.91
2022-08-28T04:02:53.591Z,95.91
2022-08-28T04:03:53.881Z,95.81
2022-08-28T04:04:54.206Z,95.81
2022-08-28T04:05:54.531Z,95.70
2022-08-28T04:06:56.851Z,95.70
2022-08-28T04:07:55.146Z,95.61
2022-08-28T04:08:55.449Z,95.70
2022-08-28T04:09:55.750Z,95.61
2022-08-28T04:10:56.077Z,95.65
2022-08-28T04:12:00.221Z,95.65
2022-08-28T04:12:56.661Z,95.75
2022-08-28T04:14:00.313Z,95.61
2022-08-28T04:14:58.283Z,95.65
2022-08-28T04:15:57.540Z,95.61
2022-08-28T04:17:01.645Z,95.50
2022-08-28T04:17:58.151Z,95.30
2022-08-28T04:18:58.492Z,95.09
2022-08-28T04:19:58.826Z,94.89
2022-08-28T04:20:59.171Z,94.89
2022-08-28T04:22:01.513Z,94.79
2022-08-28T04:23:01.734Z,94.69
2022-08-28T04:24:00.140Z,94.59
2022-08-28T04:25:03.795Z,94.38
2022-08-28T04:26:01.567Z,94.28
2022-08-28T04:27:04.854Z,94.18
2022-08-28T04:28:03.072Z,94.04
2022-08-28T04:29:02.564Z,94.08
2022-08-28T04:30:02.737Z,94.18
2022-08-28T04:31:03.146Z,94.28
2022-08-28T04:32:06.342Z,94.18
2022-08-28T04:33:03.716Z,94.04
2022-08-28T04:34:02.984Z,93.83
2022-08-28T04:35:03.341Z,93.83
2022-08-28T04:36:03.556Z,93.73
2022-08-28T04:37:07.765Z,93.52
2022-08-28T04:38:05.577Z,93.43
2022-08-28T04:39:04.500Z,93.52
2022-08-28T04:40:04.898Z,93.32
2022-08-28T04:41:05.060Z,93.22
2022-08-28T04:42:07.997Z,93.18
2022-08-28T04:43:05.558Z,93.18
2022-08-28T04:44:05.788Z,93.07
2022-08-28T04:45:06.018Z,93.18
2022-08-28T04:46:06.284Z,93.18
2022-08-28T04:47:09.540Z,93.07
2022-08-28T04:48:09.060Z,92.93
2022-08-28T04:49:06.996Z,92.83
2022-08-28T04:50:07.214Z,92.63
2022-08-28T04:51:07.445Z,92.38
2022-08-28T04:52:10.109Z,92.18
2022-08-28T04:53:07.915Z,92.03
2022-08-28T04:54:08.145Z,91.73
2022-08-28T04:55:10.334Z,91.52
2022-08-28T04:56:10.516Z,91.38
2022-08-28T04:57:10.881Z,91.08
2022-08-28T04:58:10.930Z,90.83
2022-08-28T04:59:11.070Z,90.53
2022-08-28T05:00:11.745Z,90.62
2022-08-28T05:01:11.943Z,90.42
2022-08-28T05:02:12.905Z,90.18
2022-08-28T05:03:10.677Z,89.73
2022-08-28T05:04:10.905Z,88.48
2022-08-28T05:05:11.141Z,87.73
2022-08-28T05:06:13.342Z,87.12
2022-08-28T05:07:13.500Z,86.47
2022-08-28T05:08:13.873Z,86.27
2022-08-28T05:09:13.851Z,86.27
2022-08-28T05:10:14.006Z,86.02
2022-08-28T05:11:14.695Z,85.82
2022-08-28T05:12:15.856Z,85.62
2022-08-28T05:13:13.419Z,85.52
2022-08-28T05:14:16.152Z,86.16
2022-08-28T05:15:13.929Z,86.98
2022-08-28T05:16:14.299Z,87.18
2022-08-28T05:17:16.356Z,87.52
2022-08-28T05:18:16.512Z,87.62
2022-08-28T05:19:16.703Z,87.32
2022-08-28T05:20:15.363Z,87.08
2022-08-28T05:21:15.716Z,87.38
2022-08-28T05:22:17.901Z,87.28
2022-08-28T05:23:16.203Z,85.78
2022-08-28T05:24:18.369Z,85.14
2022-08-28T05:25:18.565Z,84.43
2022-08-28T05:26:18.745Z,83.52
2022-08-28T05:27:18.902Z,83.68
2022-08-28T05:28:19.061Z,83.28
2022-08-28T05:29:17.860Z,82.64
2022-08-28T05:30:20.035Z,82.64
2022-08-28T05:31:20.274Z,82.03
2022-08-28T05:32:18.675Z,82.09
2022-08-28T05:33:18.907Z,82.84
2022-08-28T05:34:19.134Z,83.48
2022-08-28T05:35:19.383Z,83.74
2022-08-28T05:36:19.620Z,82.50
2022-08-28T05:37:21.926Z,81.75
2022-08-28T05:38:21.976Z,81.75
2022-08-28T05:39:20.413Z,81.61
2022-08-28T05:40:22.635Z,81.41
2022-08-28T05:41:20.916Z,80.66
2022-08-28T05:42:21.163Z,80.26
2022-08-28T05:43:21.488Z,79.96
2022-08-28T05:44:21.607Z,80.26
2022-08-28T05:45:23.794Z,79.82
2022-08-28T05:46:22.215Z,79.36
2022-08-28T05:47:24.288Z,80.70
2022-08-28T05:48:22.706Z,82.39
2022-08-28T05:49:22.939Z,83.04
2022-08-28T05:50:25.121Z,83.74
2022-08-28T05:51:23.421Z,84.39
2022-08-28T05:52:23.714Z,84.69
2022-08-28T05:53:24.066Z,84.99
2022-08-28T05:54:24.291Z,85.50
2022-08-28T05:55:26.471Z,85.66
2022-08-28T05:56:25.699Z,84.01
2022-08-28T05:57:27.099Z,84.65
2022-08-28T05:58:25.518Z,84.79
2022-08-28T05:59:25.748Z,85.10
2022-08-28T06:00:25.978Z,84.69
2022-08-28T06:01:30.188Z,84.99
2022-08-28T06:02:26.560Z,84.39
2022-08-28T06:03:28.753Z,83.54
2022-08-28T06:04:28.986Z,82.25
2022-08-28T06:05:27.407Z,81.01
2022-08-28T06:06:29.124Z,80.97
2022-08-28T06:07:27.931Z,79.82
2022-08-28T06:08:30.117Z,80.87
2022-08-28T06:09:30.409Z,81.65
2022-08-28T06:10:30.470Z,82.11
2022-08-28T06:11:30.971Z,81.01
2022-08-28T06:12:29.228Z,81.75
2022-08-28T06:13:31.413Z,81.75
2022-08-28T06:14:31.590Z,81.91
2022-08-28T06:15:30.001Z,81.10
2022-08-28T06:16:31.273Z,80.80
2022-08-28T06:17:30.486Z,81.10
2022-08-28T06:18:30.710Z,80.57
2022-08-28T06:19:32.905Z,79.96
2022-08-28T06:20:31.212Z,79.32
2022-08-28T06:21:35.376Z,78.58
2022-08-28T06:22:31.711Z,79.05
2022-08-28T06:23:31.953Z,79.96
2022-08-28T06:24:34.131Z,80.06
2022-08-28T06:25:32.443Z,80.90
2022-08-28T06:26:33.572Z,80.84
2022-08-28T06:27:32.992Z,81.45
2022-08-28T06:28:33.254Z,81.55
2022-08-28T06:29:33.512Z,81.79
2022-08-28T06:30:33.754Z,81.45
2022-08-28T06:31:34.954Z,79.80
2022-08-28T06:32:34.300Z,79.39
2022-08-28T06:33:35.362Z,78.99
2022-08-28T06:34:34.771Z,79.60
2022-08-28T06:35:35.000Z,79.83
2022-08-28T06:36:36.200Z,80.13
2022-08-28T06:37:35.485Z,79.93
2022-08-28T06:38:37.173Z,80.00
2022-08-28T06:39:37.857Z,78.17
2022-08-28T06:40:38.089Z,77.07
2022-08-28T06:41:37.504Z,76.73
2022-08-28T06:42:36.947Z,75.99
2022-08-28T06:43:37.193Z,76.29
2022-08-28T06:44:41.323Z,75.89
2022-08-28T06:45:37.726Z,76.05
2022-08-28T06:46:40.333Z,75.75
2022-08-28T06:47:38.976Z,75.21
2022-08-28T06:48:39.864Z,74.37
2022-08-28T06:49:42.062Z,74.07
2022-08-28T06:50:39.974Z,73.17
2022-08-28T06:51:42.184Z,73.27
2022-08-28T06:52:40.877Z,71.77
2022-08-28T06:53:40.704Z,72.10
2022-08-28T06:54:45.609Z,70.96
2022-08-28T06:55:41.394Z,70.06
2022-08-28T06:56:42.720Z,71.06
2022-08-28T06:57:41.866Z,72.10
2022-08-28T06:58:42.018Z,73.27
2022-08-28T06:59:43.376Z,74.95
2022-08-28T07:00:41.685Z,76.43
2022-08-28T07:01:43.465Z,77.78
2022-08-28T07:02:42.315Z,78.28
2022-08-28T07:03:44.377Z,79.33
2022-08-28T07:04:44.734Z,79.23
2022-08-28T07:05:43.046Z,79.97
2022-08-28T07:06:46.567Z,80.38
2022-08-28T07:07:43.535Z,80.92
2022-08-28T07:08:43.765Z,81.42
2022-08-28T07:09:43.998Z,81.73
2022-08-28T07:10:45.190Z,81.67
2022-08-28T07:11:47.359Z,81.93
2022-08-28T07:12:46.587Z,79.63
2022-08-28T07:13:45.009Z,79.93
2022-08-28T07:14:47.156Z,80.04
2022-08-28T07:15:47.406Z,80.38
2022-08-28T07:16:46.691Z,78.79
2022-08-28T07:17:45.990Z,78.59
2022-08-28T07:18:46.225Z,76.97
2022-08-28T07:19:48.419Z,75.32
2022-08-28T07:20:47.212Z,74.21
2022-08-28T07:21:50.052Z,74.08
2022-08-28T07:22:47.248Z,73.47
2022-08-28T07:23:48.488Z,73.81
2022-08-28T07:24:49.683Z,74.85
2022-08-28T07:25:48.113Z,76.34
2022-08-28T07:26:52.262Z,76.87
2022-08-28T07:27:48.596Z,77.68
2022-08-28T07:28:50.776Z,77.62
2022-08-28T07:29:50.967Z,77.58
2022-08-28T07:30:51.209Z,77.78
2022-08-28T07:31:52.683Z,75.96
2022-08-28T07:32:50.000Z,74.92
2022-08-28T07:33:53.984Z,75.29
2022-08-28T07:34:52.363Z,75.35
2022-08-28T07:35:52.540Z,75.35
2022-08-28T07:36:53.985Z,75.39
2022-08-28T07:37:52.935Z,75.96
2022-08-28T07:38:53.592Z,75.70
2022-08-28T07:39:53.807Z,76.54
2022-08-28T07:40:53.962Z,75.22
2022-08-28T07:41:55.556Z,74.15
2022-08-28T07:42:52.752Z,73.14
2022-08-28T07:43:54.951Z,73.50
2022-08-28T07:44:55.134Z,73.00
2022-08-28T07:45:55.377Z,72.37
2022-08-28T07:46:55.839Z,71.26
2022-08-28T07:47:54.153Z,71.90
2022-08-28T07:48:56.545Z,70.83
2022-08-28T07:49:56.584Z,71.16
2022-08-28T07:50:55.025Z,72.17
2022-08-28T07:52:00.178Z,74.01
2022-08-28T07:52:55.524Z,74.58
2022-08-28T07:53:57.969Z,75.09
2022-08-28T07:54:57.576Z,75.49
2022-08-28T07:55:56.387Z,76.06
2022-08-28T07:57:00.548Z,73.94
2022-08-28T07:57:58.744Z,72.53
2022-08-28T07:58:57.176Z,70.76
2022-08-28T07:59:59.355Z,70.32
2022-08-28T08:00:57.668Z,69.59
2022-08-28T08:02:01.060Z,70.56
2022-08-28T08:02:58.256Z,72.84
2022-08-28T08:04:01.700Z,73.91
2022-08-28T08:05:00.674Z,74.99
2022-08-28T08:06:00.849Z,76.10
2022-08-28T08:07:02.376Z,76.50
2022-08-28T08:07:59.567Z,76.80
2022-08-28T08:08:59.810Z,76.10
2022-08-28T08:10:01.990Z,76.50
2022-08-28T08:11:00.297Z,76.16
2022-08-28T08:12:03.685Z,75.35
2022-08-28T08:13:00.983Z,74.28
2022-08-28T08:14:01.223Z,73.71
2022-08-28T08:15:03.402Z,74.65
2022-08-28T08:16:01.760Z,72.94
2022-08-28T08:17:02.946Z,73.68
2022-08-28T08:18:02.251Z,74.62
2022-08-28T08:19:02.492Z,75.42
2022-08-28T08:20:04.669Z,75.18
2022-08-28T08:21:02.979Z,74.44
2022-08-28T08:22:04.695Z,72.97
2022-08-28T08:23:03.525Z,72.06
2022-08-28T08:24:03.763Z,71.13
2022-08-28T08:25:05.944Z,71.13
2022-08-28T08:26:04.254Z,71.63
2022-08-28T08:27:05.313Z,72.83
2022-08-28T08:28:04.741Z,72.37
2022-08-28T08:29:04.981Z,74.31
2022-08-28T08:30:07.160Z,74.95
2022-08-28T08:31:05.542Z,74.74
2022-08-28T08:32:06.624Z,74.85
2022-08-28T08:33:06.045Z,75.18
2022-08-28T08:34:06.277Z,75.29
2022-08-28T08:35:07.445Z,75.79
2022-08-28T08:36:08.634Z,75.68
2022-08-28T08:37:10.301Z,76.63
2022-08-28T08:38:07.373Z,77.23
2022-08-28T08:39:11.481Z,76.43
2022-08-28T08:40:10.879Z,77.03
2022-08-28T08:41:09.871Z,76.83
2022-08-28T08:42:12.521Z,77.13
2022-08-28T08:43:08.855Z,76.69
2022-08-28T08:44:09.094Z,76.03
2022-08-28T08:45:11.279Z,76.39
2022-08-28T08:46:11.533Z,74.74
2022-08-28T08:47:14.428Z,74.98
2022-08-28T08:48:10.222Z,72.77
2022-08-28T08:49:10.455Z,74.41
2022-08-28T08:50:13.593Z,73.81
2022-08-28T08:51:11.037Z,73.67
2022-08-28T08:52:11.269Z,73.10
2022-08-28T08:53:14.884Z,71.03
2022-08-28T08:54:12.704Z,70.69
2022-08-28T08:55:15.177Z,69.46
2022-08-28T08:56:12.452Z,68.79
2022-08-28T08:57:12.690Z,68.19
2022-08-28T08:58:13.095Z,70.66
2022-08-28T08:59:13.224Z,72.97
2022-08-28T09:00:15.962Z,74.81
2022-08-28T09:01:15.699Z,75.45
2022-08-28T09:02:14.001Z,75.45
2022-08-28T09:03:14.286Z,75.05
2022-08-28T09:04:15.846Z,75.65
2022-08-28T09:05:14.762Z,75.55
2022-08-28T09:06:18.392Z,75.45
2022-08-28T09:07:16.328Z,75.21
2022-08-28T09:08:16.479Z,74.31
2022-08-28T09:09:16.899Z,74.07
2022-08-28T09:10:17.059Z,73.57
2022-08-28T09:11:18.397Z,74.85
2022-08-28T09:12:18.579Z,75.38
2022-08-28T09:13:18.049Z,76.29
2022-08-28T09:14:19.560Z,77.00
2022-08-28T09:15:18.629Z,75.01
2022-08-28T09:16:19.930Z,73.84
2022-08-28T09:17:20.834Z,71.86
2022-08-28T09:18:18.516Z,71.63
2022-08-28T09:19:18.756Z,71.90
2022-08-28T09:20:19.944Z,72.06
2022-08-28T09:21:21.194Z,71.83
2022-08-28T09:22:21.376Z,73.24
2022-08-28T09:23:19.931Z,74.68
2022-08-28T09:24:20.174Z,73.87
2022-08-28T09:25:20.417Z,71.66
2022-08-28T09:26:22.640Z,71.09
2022-08-28T09:27:22.814Z,73.37
2022-08-28T09:28:21.242Z,74.57
2022-08-28T09:29:23.431Z,75.11
2022-08-28T09:30:22.618Z,74.81
2022-08-28T09:31:24.020Z,75.31
2022-08-28T09:32:23.993Z,76.25
2022-08-28T09:33:24.177Z,76.45
2022-08-28T09:34:22.863Z,75.75
2022-08-28T09:35:25.034Z,75.38
2022-08-28T09:36:26.348Z,73.07
2022-08-28T09:37:25.422Z,71.16
2022-08-28T09:38:27.942Z,69.62
2022-08-28T09:39:25.797Z,69.86
2022-08-28T09:40:26.547Z,68.46
2022-08-28T09:41:28.602Z,70.53
2022-08-28T09:42:26.828Z,70.19
2022-08-28T09:43:27.013Z,71.50
2022-08-28T09:44:27.704Z,73.13
2022-08-28T09:45:27.896Z,74.18
2022-08-28T09:46:29.313Z,74.61
2022-08-28T09:47:28.272Z,75.31
2022-08-28T09:48:28.965Z,76.32
2022-08-28T09:49:29.147Z,75.21
2022-08-28T09:50:29.327Z,75.31
2022-08-28T09:51:30.791Z,74.74
2022-08-28T09:52:28.110Z,74.51
2022-08-28T09:53:30.303Z,73.63
2022-08-28T09:54:30.470Z,73.13
2022-08-28T09:55:30.673Z,73.50
2022-08-28T09:56:32.103Z,73.94
2022-08-28T09:57:29.538Z,74.57
2022-08-28T09:58:33.662Z,75.27
2022-08-28T09:59:31.898Z,75.62
2022-08-28T10:00:32.078Z,74.81
2022-08-28T10:01:34.763Z,75.38
2022-08-28T10:02:31.075Z,74.84
2022-08-28T10:03:33.250Z,73.86
2022-08-28T10:04:31.678Z,73.70
2022-08-28T10:05:33.754Z,74.84
2022-08-28T10:06:35.896Z,76.02
2022-08-28T10:07:34.180Z,76.86
2022-08-28T10:08:32.711Z,76.96
2022-08-28T10:09:32.949Z,77.26
2022-08-28T10:10:33.185Z,76.96
2022-08-28T10:11:37.336Z,77.76
2022-08-28T10:12:33.664Z,77.86
2022-08-28T10:13:35.846Z,77.22
2022-08-28T10:14:34.152Z,76.68
2022-08-28T10:15:34.468Z,75.97
2022-08-28T10:16:38.548Z,74.17
2022-08-28T10:17:35.022Z,73.26
2022-08-28T10:18:37.196Z,71.29
2022-08-28T10:19:35.505Z,70.29
2022-08-28T10:20:35.741Z,68.82
2022-08-28T10:21:39.939Z,69.16
2022-08-28T10:22:38.165Z,68.99
2022-08-28T10:23:36.596Z,69.82
2022-08-28T10:24:38.773Z,70.66
2022-08-28T10:25:37.128Z,71.62
2022-08-28T10:26:39.190Z,72.69
2022-08-28T10:27:39.645Z,73.57
2022-08-28T10:28:37.911Z,74.57
2022-08-28T10:29:40.090Z,75.81
2022-08-28T10:30:38.472Z,75.54
2022-08-28T10:31:38.899Z,74.67
2022-08-28T10:32:39.044Z,75.07
2022-08-28T10:33:39.252Z,75.84
2022-08-28T10:34:41.436Z,76.95
2022-08-28T10:35:39.752Z,77.39
2022-08-28T10:36:41.965Z,77.79
2022-08-28T10:37:42.245Z,77.39
2022-08-28T10:38:40.549Z,77.62
2022-08-28T10:39:42.736Z,78.22
2022-08-28T10:40:41.109Z,76.51
2022-08-28T10:41:45.207Z,75.67
2022-08-28T10:42:41.543Z,75.10
2022-08-28T10:43:43.725Z,73.43
2022-08-28T10:44:42.016Z,72.63
2022-08-28T10:45:44.223Z,70.56
2022-08-28T10:46:44.587Z,70.16
2022-08-28T10:47:42.794Z,70.26
2022-08-28T10:48:44.976Z,70.59
2022-08-28T10:49:43.284Z,71.92
2022-08-28T10:50:43.531Z,73.10
2022-08-28T10:51:47.688Z,74.10
2022-08-28T10:52:44.020Z,76.45
2022-08-28T10:53:46.210Z,77.15
2022-08-28T10:54:44.516Z,76.04
2022-08-28T10:55:44.764Z,75.54
2022-08-28T10:56:46.049Z,76.15
2022-08-28T10:57:46.361Z,76.71
2022-08-28T10:58:45.661Z,75.71
2022-08-28T10:59:47.841Z,76.21
2022-08-28T11:00:46.155Z,76.34
2022-08-28T11:01:47.848Z,76.89
2022-08-28T11:02:46.688Z,75.17
2022-08-28T11:03:48.829Z,74.17
2022-08-28T11:04:49.012Z,73.00
2022-08-28T11:05:53.693Z,71.33
2022-08-28T11:06:49.707Z,69.29
2022-08-28T11:07:49.914Z,70.19
2022-08-28T11:08:48.235Z,68.26
2022-08-28T11:09:50.415Z,69.13
2022-08-28T11:10:48.735Z,67.54
2022-08-28T11:11:50.475Z,65.91
2022-08-28T11:12:51.202Z,69.69
2022-08-28T11:13:49.516Z,73.23
2022-08-28T11:14:53.163Z,74.73
2022-08-28T11:15:49.997Z,74.37
2022-08-28T11:16:51.786Z,74.71
2022-08-28T11:17:51.459Z,74.37
2022-08-28T11:18:51.878Z,75.43
2022-08-28T11:19:52.591Z,74.03
2022-08-28T11:20:52.193Z,75.07
2022-08-28T11:21:54.918Z,75.81
2022-08-28T11:22:53.046Z,75.13
2022-08-28T11:23:54.174Z,73.39
2022-08-28T11:24:55.981Z,71.49
2022-08-28T11:25:53.888Z,70.12
2022-08-28T11:26:56.230Z,69.99
2022-08-28T11:27:53.440Z,69.02
2022-08-28T11:28:53.688Z,67.96
2022-08-28T11:29:53.931Z,67.63
2022-08-28T11:30:54.215Z,70.56
2022-08-28T11:31:58.373Z,72.56
2022-08-28T11:32:56.570Z,74.37
2022-08-28T11:33:55.003Z,75.60
2022-08-28T11:34:55.244Z,74.46
2022-08-28T11:35:55.501Z,70.92
2022-08-28T11:36:59.664Z,71.16
2022-08-28T11:37:57.905Z,70.16
2022-08-28T11:38:56.352Z,70.19
2022-08-28T11:39:56.636Z,70.29
2022-08-28T11:40:56.842Z,70.76
2022-08-28T11:41:59.138Z,70.62
2022-08-28T11:43:00.327Z,69.99
2022-08-28T11:43:57.716Z,71.56
2022-08-28T11:44:57.956Z,72.46
2022-08-28T11:45:58.296Z,73.80
2022-08-28T11:46:58.527Z,73.76
2022-08-28T11:48:00.755Z,72.86
2022-08-28T11:48:59.057Z,71.86
2022-08-28T11:49:59.294Z,72.63
2022-08-28T11:50:59.542Z,73.70
2022-08-28T11:52:00.766Z,72.89
2022-08-28T11:53:03.429Z,71.89
2022-08-28T11:54:03.368Z,72.89
2022-08-28T11:55:02.377Z,72.99
2022-08-28T11:56:00.951Z,72.92
2022-08-28T11:57:02.131Z,72.36
2022-08-28T11:58:39.194Z,73.70
2022-08-28T11:59:41.385Z,74.20
2022-08-28T12:00:39.695Z,74.76
2022-08-28T12:01:39.932Z,73.90
2022-08-28T12:02:40.276Z,73.90
2022-08-28T12:03:42.358Z,75.00
2022-08-28T12:04:40.769Z,75.90
2022-08-28T12:05:41.014Z,75.04
2022-08-28T12:06:41.254Z,75.70
2022-08-28T12:07:41.494Z,74.40
2022-08-28T12:08:43.677Z,75.00
2022-08-28T12:09:43.858Z,75.40
2022-08-28T12:10:42.293Z,75.10
2022-08-28T12:11:42.538Z,75.60
2022-08-28T12:12:42.770Z,75.40
2022-08-28T12:13:44.957Z,75.16
2022-08-28T12:14:43.388Z,74.00
2022-08-28T12:15:43.689Z,75.67
2022-08-28T12:16:43.940Z,73.22
2022-08-28T12:17:44.184Z,74.09
2022-08-28T12:18:46.377Z,72.42
2022-08-28T12:19:54.625Z,72.89
2022-08-28T12:20:49.322Z,73.90
2022-08-28T12:21:45.156Z,75.13
2022-08-28T12:22:45.422Z,76.47
2022-08-28T12:23:45.659Z,76.67
2022-08-28T12:24:49.304Z,76.51
2022-08-28T12:25:50.089Z,77.15
2022-08-28T12:26:46.524Z,77.65
2022-08-28T12:27:46.755Z,78.05
2022-08-28T12:28:50.405Z,78.66
2022-08-28T12:29:48.128Z,78.55
2022-08-28T12:30:49.460Z,79.60
2022-08-28T12:31:49.665Z,79.96
2022-08-28T12:32:49.120Z,80.10
2022-08-28T12:33:50.526Z,80.76
2022-08-28T12:34:50.672Z,79.52
2022-08-28T12:35:50.121Z,78.88
2022-08-28T12:36:52.146Z,78.18
2022-08-28T12:37:51.823Z,77.98
2022-08-28T12:38:53.157Z,78.81
2022-08-28T12:39:51.265Z,78.81
2022-08-28T12:40:54.069Z,78.81
2022-08-28T12:41:52.792Z,78.31
2022-08-28T12:42:55.211Z,79.60
2022-08-28T12:43:54.730Z,80.70
2022-08-28T12:44:53.855Z,81.24
2022-08-28T12:45:54.088Z,81.54
2022-08-28T12:46:53.417Z,81.74
2022-08-28T12:47:53.569Z,81.40
2022-08-28T12:48:54.470Z,80.28
2022-08-28T12:49:56.165Z,78.00
2022-08-28T12:50:55.495Z,77.44
2022-08-28T12:51:55.508Z,77.84
2022-08-28T12:52:54.069Z,77.67
2022-08-28T12:53:58.246Z,78.31
2022-08-28T12:54:56.442Z,78.45
2022-08-28T12:55:55.623Z,78.55
2022-08-28T12:56:56.821Z,78.38